sensor_id;sensor_type;location;lat;lon;timestamp;pressure;altitude;pressure_sealevel;temperature;humidity
13767;BME280;47980;48.794;9.176;2023-01-31T00:01:11;99149.34;;;4.56;81.89
13767;BME280;47980;48.794;9.176;2023-01-31T00:03:43;99145.13;;;4.45;82.49
13767;BME280;47980;48.794;9.176;2023-01-31T00:06:18;99144.88;;;4.51;82.72
13767;BME280;47980;48.794;9.176;2023-01-31T00:08:50;99143.78;;;4.37;82.59
13767;BME280;47980;48.794;9.176;2023-01-31T00:11:24;99132.22;;;4.38;83.37
13767;BME280;47980;48.794;9.176;2023-01-31T00:13:57;99133.50;;;4.25;83.18
13767;BME280;47980;48.794;9.176;2023-01-31T00:16:28;99121.88;;;4.11;83.34
13767;BME280;47980;48.794;9.176;2023-01-31T00:19:00;99124.50;;;4.11;83.71
13767;BME280;47980;48.794;9.176;2023-01-31T00:21:33;99121.06;;;4.00;84.30
13767;BME280;47980;48.794;9.176;2023-01-31T00:24:05;99126.34;;;4.10;84.17
13767;BME280;47980;48.794;9.176;2023-01-31T00:26:36;99127.38;;;4.04;83.61
13767;BME280;47980;48.794;9.176;2023-01-31T00:29:08;99126.03;;;4.02;83.69
13767;BME280;47980;48.794;9.176;2023-01-31T00:31:40;99128.66;;;4.02;84.33
13767;BME280;47980;48.794;9.176;2023-01-31T00:34:11;99128.66;;;4.02;83.65
13767;BME280;47980;48.794;9.176;2023-01-31T00:36:44;99126.84;;;4.07;84.28
13767;BME280;47980;48.794;9.176;2023-01-31T00:39:15;99121.78;;;3.96;84.04
13767;BME280;47980;48.794;9.176;2023-01-31T00:41:47;99116.31;;;4.02;82.81
13767;BME280;47980;48.794;9.176;2023-01-31T00:44:18;99114.47;;;3.98;84.09
13767;BME280;47980;48.794;9.176;2023-01-31T00:46:50;99099.53;;;4.03;83.21
13767;BME280;47980;48.794;9.176;2023-01-31T00:49:21;99114.69;;;3.91;83.91
13767;BME280;47980;48.794;9.176;2023-01-31T00:51:54;99107.09;;;3.90;83.16
13767;BME280;47980;48.794;9.176;2023-01-31T00:54:26;99110.22;;;3.86;82.81
13767;BME280;47980;48.794;9.176;2023-01-31T00:56:57;99108.13;;;3.89;82.75
13767;BME280;47980;48.794;9.176;2023-01-31T00:59:29;99098.66;;;3.88;83.29
13767;BME280;47980;48.794;9.176;2023-01-31T01:02:01;99113.91;;;3.91;82.74
13767;BME280;47980;48.794;9.176;2023-01-31T01:04:32;99099.22;;;3.95;81.82
13767;BME280;47980;48.794;9.176;2023-01-31T01:07:05;99104.19;;;3.91;82.58
13767;BME280;47980;48.794;9.176;2023-01-31T01:09:37;99103.75;;;4.09;81.91
13767;BME280;47980;48.794;9.176;2023-01-31T01:12:08;99107.75;;;4.22;79.48
13767;BME280;47980;48.794;9.176;2023-01-31T01:14:40;99111.81;;;3.93;81.03
13767;BME280;47980;48.794;9.176;2023-01-31T01:17:11;99103.97;;;3.93;80.87
13767;BME280;47980;48.794;9.176;2023-01-31T01:19:43;99109.22;;;3.98;80.24
13767;BME280;47980;48.794;9.176;2023-01-31T01:22:16;99107.88;;;3.95;80.96
13767;BME280;47980;48.794;9.176;2023-01-31T01:24:47;99099.28;;;4.05;80.57
13767;BME280;47980;48.794;9.176;2023-01-31T01:27:19;99111.41;;;4.16;79.92
13767;BME280;47980;48.794;9.176;2023-01-31T01:29:50;99111.06;;;4.02;80.48
13767;BME280;47980;48.794;9.176;2023-01-31T01:32:22;99111.06;;;4.02;80.55
13767;BME280;47980;48.794;9.176;2023-01-31T01:34:54;99113.66;;;3.92;80.46
13767;BME280;47980;48.794;9.176;2023-01-31T01:37:26;99114.91;;;3.84;80.35
13767;BME280;47980;48.794;9.176;2023-01-31T01:39:59;99124.41;;;3.96;81.25
13767;BME280;47980;48.794;9.176;2023-01-31T01:42:33;99121.78;;;3.96;80.73
13767;BME280;47980;48.794;9.176;2023-01-31T01:45:11;99120.72;;;3.86;81.11
13767;BME280;47980;48.794;9.176;2023-01-31T01:47:47;99128.59;;;3.86;81.61
13767;BME280;47980;48.794;9.176;2023-01-31T01:50:23;99129.41;;;3.92;81.76
13767;BME280;47980;48.794;9.176;2023-01-31T01:53:01;99124.84;;;3.77;81.19
13767;BME280;47980;48.794;9.176;2023-01-31T01:55:36;99136.41;;;3.76;81.42
13767;BME280;47980;48.794;9.176;2023-01-31T01:58:15;99139.81;;;3.77;83.13
13767;BME280;47980;48.794;9.176;2023-01-31T02:00:49;99141.13;;;3.74;82.02
13767;BME280;47980;48.794;9.176;2023-01-31T02:03:21;99149.41;;;3.61;83.40
13767;BME280;47980;48.794;9.176;2023-01-31T02:05:55;99128.72;;;3.65;83.10
13767;BME280;47980;48.794;9.176;2023-01-31T02:08:32;99139.44;;;3.58;84.50
13767;BME280;47980;48.794;9.176;2023-01-31T02:11:09;99136.28;;;3.56;84.03
13767;BME280;47980;48.794;9.176;2023-01-31T02:13:44;99132.34;;;3.58;84.31
13767;BME280;47980;48.794;9.176;2023-01-31T02:16:17;99128.97;;;3.63;83.85
13767;BME280;47980;48.794;9.176;2023-01-31T02:18:48;99133.41;;;3.62;83.35
13767;BME280;47980;48.794;9.176;2023-01-31T02:22:00;99141.06;;;3.69;84.28
13767;BME280;47980;48.794;9.176;2023-01-31T02:28:03;99165.16;;;3.61;84.79
13767;BME280;47980;48.794;9.176;2023-01-31T02:30:58;99169.25;;;3.84;84.04
13767;BME280;47980;48.794;9.176;2023-01-31T02:33:39;99169.56;;;3.93;82.75
13767;BME280;47980;48.794;9.176;2023-01-31T02:36:21;99166.69;;;3.94;82.50
13767;BME280;47980;48.794;9.176;2023-01-31T02:39:03;99169.28;;;3.89;82.68
13767;BME280;47980;48.794;9.176;2023-01-31T02:41:43;99168.22;;;3.90;83.56
13767;BME280;47980;48.794;9.176;2023-01-31T02:44:22;99171.63;;;3.85;84.51
13767;BME280;47980;48.794;9.176;2023-01-31T02:47:22;99168.78;;;3.92;83.71
13767;BME280;47980;48.794;9.176;2023-01-31T02:50:03;99164.84;;;3.95;84.03
13767;BME280;47980;48.794;9.176;2023-01-31T02:52:45;99174.81;;;3.93;83.91
13767;BME280;47980;48.794;9.176;2023-01-31T02:55:21;99180.34;;;3.96;83.68
13767;BME280;47980;48.794;9.176;2023-01-31T02:58:13;99179.81;;;3.99;83.75
13767;BME280;47980;48.794;9.176;2023-01-31T03:00:47;99180.16;;;4.08;83.08
13767;BME280;47980;48.794;9.176;2023-01-31T03:03:22;99172.00;;;4.04;84.04
13767;BME280;47980;48.794;9.176;2023-01-31T03:09:10;99170.34;;;3.93;84.82
13767;BME280;47980;48.794;9.176;2023-01-31T03:11:55;99169.53;;;3.88;85.34
13767;BME280;47980;48.794;9.176;2023-01-31T03:14:31;99162.97;;;3.90;84.90
13767;BME280;47980;48.794;9.176;2023-01-31T03:17:09;99161.22;;;4.01;84.35
13767;BME280;47980;48.794;9.176;2023-01-31T03:20:06;99170.34;;;3.93;85.35
13767;BME280;47980;48.794;9.176;2023-01-31T03:22:43;99171.94;;;3.94;84.34
13767;BME280;47980;48.794;9.176;2023-01-31T03:25:20;99167.72;;;3.93;84.16
13767;BME280;47980;48.794;9.176;2023-01-31T03:27:54;99176.69;;;4.02;84.49
13767;BME280;47980;48.794;9.176;2023-01-31T03:30:31;99168.91;;;4.18;83.87
13767;BME280;47980;48.794;9.176;2023-01-31T03:33:09;99173.56;;;4.05;83.47
13767;BME280;47980;48.794;9.176;2023-01-31T03:35:47;99175.47;;;4.15;82.95
13767;BME280;47980;48.794;9.176;2023-01-31T03:38:24;99186.16;;;4.03;83.33
13767;BME280;47980;48.794;9.176;2023-01-31T03:41:02;99189.25;;;3.95;85.29
13767;BME280;47980;48.794;9.176;2023-01-31T03:43:43;99190.31;;;3.99;84.14
13767;BME280;47980;48.794;9.176;2023-01-31T03:46:18;99199.53;;;4.02;83.57
13767;BME280;47980;48.794;9.176;2023-01-31T03:48:52;99193.47;;;3.96;84.92
13767;BME280;47980;48.794;9.176;2023-01-31T03:51:28;99190.31;;;3.94;84.10
13767;BME280;47980;48.794;9.176;2023-01-31T03:54:05;99196.53;;;3.83;85.36
13767;BME280;47980;48.794;9.176;2023-01-31T03:56:41;99194.69;;;3.83;84.51
13767;BME280;47980;48.794;9.176;2023-01-31T03:59:16;99197.31;;;3.83;85.26
13767;BME280;47980;48.794;9.176;2023-01-31T04:01:54;99197.47;;;3.67;85.90
13767;BME280;47980;48.794;9.176;2023-01-31T04:04:30;99209.28;;;3.69;86.68
13767;BME280;47980;48.794;9.176;2023-01-31T04:07:03;99206.84;;;3.57;85.37
13767;BME280;47980;48.794;9.176;2023-01-31T04:09:36;99209.97;;;3.54;86.97
13767;BME280;47980;48.794;9.176;2023-01-31T04:12:11;99209.97;;;3.54;86.35
13767;BME280;47980;48.794;9.176;2023-01-31T04:14:42;99214.03;;;3.40;86.44
13767;BME280;47980;48.794;9.176;2023-01-31T04:17:14;99218.66;;;3.28;86.74
13767;BME280;47980;48.794;9.176;2023-01-31T04:19:46;99217.72;;;3.12;87.80
13767;BME280;47980;48.794;9.176;2023-01-31T04:22:17;99221.28;;;3.01;89.67
13767;BME280;47980;48.794;9.176;2023-01-31T04:24:49;99218.50;;;2.85;89.83
13767;BME280;47980;48.794;9.176;2023-01-31T04:27:21;99208.09;;;2.69;90.04
13767;BME280;47980;48.794;9.176;2023-01-31T04:29:53;99209.38;;;2.66;90.66
13767;BME280;47980;48.794;9.176;2023-01-31T04:32:24;99211.31;;;2.54;91.79
13767;BME280;47980;48.794;9.176;2023-01-31T04:34:56;99206.50;;;2.46;92.84
13767;BME280;47980;48.794;9.176;2023-01-31T04:37:27;99205.38;;;2.36;92.63
13767;BME280;47980;48.794;9.176;2023-01-31T04:39:59;99208.38;;;2.28;94.00
13767;BME280;47980;48.794;9.176;2023-01-31T04:42:32;99207.38;;;2.29;93.15
13767;BME280;47980;48.794;9.176;2023-01-31T04:45:04;99212.84;;;2.28;93.94
13767;BME280;47980;48.794;9.176;2023-01-31T04:47:35;99217.53;;;2.26;94.06
13767;BME280;47980;48.794;9.176;2023-01-31T04:50:08;99210.84;;;2.35;93.33
13767;BME280;47980;48.794;9.176;2023-01-31T04:52:40;99220.34;;;2.41;94.14
13767;BME280;47980;48.794;9.176;2023-01-31T04:55:11;99219.44;;;2.52;93.64
13767;BME280;47980;48.794;9.176;2023-01-31T04:57:45;99201.75;;;2.64;92.19
13767;BME280;47980;48.794;9.176;2023-01-31T05:00:18;99203.06;;;2.62;91.91
13767;BME280;47980;48.794;9.176;2023-01-31T05:02:49;99203.41;;;2.71;92.31
13767;BME280;47980;48.794;9.176;2023-01-31T05:05:21;99196.44;;;2.81;92.45
13767;BME280;47980;48.794;9.176;2023-01-31T05:07:53;99209.41;;;2.93;90.44
13767;BME280;47980;48.794;9.176;2023-01-31T05:10:24;99214.47;;;3.00;90.03
13767;BME280;47980;48.794;9.176;2023-01-31T05:12:57;99218.53;;;3.12;89.26
13767;BME280;47980;48.794;9.176;2023-01-31T05:15:28;99219.31;;;3.13;88.16
13767;BME280;47980;48.794;9.176;2023-01-31T05:18:01;99213.31;;;3.18;88.46
13767;BME280;47980;48.794;9.176;2023-01-31T05:20:35;99209.34;;;3.15;88.81
13767;BME280;47980;48.794;9.176;2023-01-31T05:23:09;99214.09;;;3.18;88.54
13767;BME280;47980;48.794;9.176;2023-01-31T05:25:40;99216.19;;;3.16;88.77
13767;BME280;47980;48.794;9.176;2023-01-31T05:28:13;99211.88;;;3.05;87.54
13767;BME280;47980;48.794;9.176;2023-01-31T05:30:45;99218.16;;;3.04;88.26
13767;BME280;47980;48.794;9.176;2023-01-31T05:33:17;99219.00;;;3.09;87.02
13767;BME280;47980;48.794;9.176;2023-01-31T05:35:49;99226.16;;;2.92;87.86
13767;BME280;47980;48.794;9.176;2023-01-31T05:38:21;99217.91;;;2.78;89.93
13767;BME280;47980;48.794;9.176;2023-01-31T05:40:52;99222.22;;;2.68;90.15
13767;BME280;47980;48.794;9.176;2023-01-31T05:43:25;99229.78;;;2.64;90.10
13767;BME280;47980;48.794;9.176;2023-01-31T05:45:57;99223.63;;;2.53;90.80
13767;BME280;47980;48.794;9.176;2023-01-31T05:48:28;99222.78;;;2.48;91.60
13767;BME280;47980;48.794;9.176;2023-01-31T05:51:00;99216.69;;;2.42;91.77
13767;BME280;47980;48.794;9.176;2023-01-31T05:53:31;99228.19;;;2.41;92.85
13767;BME280;47980;48.794;9.176;2023-01-31T05:56:03;99222.09;;;2.35;92.34
13767;BME280;47980;48.794;9.176;2023-01-31T05:58:36;99218.50;;;2.41;92.93
13767;BME280;47980;48.794;9.176;2023-01-31T06:01:08;99217.56;;;2.48;91.75
13767;BME280;47980;48.794;9.176;2023-01-31T06:03:39;99215.84;;;2.36;92.22
13767;BME280;47980;48.794;9.176;2023-01-31T06:06:11;99216.50;;;2.27;92.93
13767;BME280;47980;48.794;9.176;2023-01-31T06:08:43;99222.47;;;2.22;93.99
13767;BME280;47980;48.794;9.176;2023-01-31T06:11:14;99224.34;;;2.27;93.56
13767;BME280;47980;48.794;9.176;2023-01-31T06:13:49;99228.72;;;2.21;93.55
13767;BME280;47980;48.794;9.176;2023-01-31T06:16:20;99222.22;;;2.24;93.74
13767;BME280;47980;48.794;9.176;2023-01-31T06:18:52;99225.25;;;2.15;93.11
13767;BME280;47980;48.794;9.176;2023-01-31T06:21:24;99223.28;;;2.06;94.26
13767;BME280;47980;48.794;9.176;2023-01-31T06:23:56;99227.88;;;1.99;95.57
13767;BME280;47980;48.794;9.176;2023-01-31T06:26:27;99233.53;;;1.90;95.26
13767;BME280;47980;48.794;9.176;2023-01-31T06:29:00;99223.53;;;1.87;95.72
13767;BME280;47980;48.794;9.176;2023-01-31T06:31:32;99228.28;;;1.90;95.72
13767;BME280;47980;48.794;9.176;2023-01-31T06:34:04;99235.25;;;1.85;96.79
13767;BME280;47980;48.794;9.176;2023-01-31T06:36:35;99232.41;;;1.86;96.75
13767;BME280;47980;48.794;9.176;2023-01-31T06:39:07;99230.28;;;1.83;97.13
13767;BME280;47980;48.794;9.176;2023-01-31T06:41:38;99235.03;;;1.86;96.56
13767;BME280;47980;48.794;9.176;2023-01-31T06:44:11;99244.41;;;1.82;96.96
13767;BME280;47980;48.794;9.176;2023-01-31T06:46:43;99238.69;;;1.85;96.85
13767;BME280;47980;48.794;9.176;2023-01-31T06:49:14;99247.53;;;1.84;96.24
13767;BME280;47980;48.794;9.176;2023-01-31T06:51:46;99241.13;;;1.92;96.29
13767;BME280;47980;48.794;9.176;2023-01-31T06:54:17;99244.88;;;1.96;95.91
13767;BME280;47980;48.794;9.176;2023-01-31T06:56:49;99244.88;;;1.96;96.05
13767;BME280;47980;48.794;9.176;2023-01-31T06:59:22;99243.81;;;1.97;94.92
13767;BME280;47980;48.794;9.176;2023-01-31T07:01:53;99237.25;;;1.95;96.08
13767;BME280;47980;48.794;9.176;2023-01-31T07:04:25;99232.25;;;1.93;95.92
13767;BME280;47980;48.794;9.176;2023-01-31T07:06:56;99223.75;;;2.03;95.08
13767;BME280;47980;48.794;9.176;2023-01-31T07:09:27;99225.03;;;2.00;95.02
13767;BME280;47980;48.794;9.176;2023-01-31T07:12:00;99227.38;;;2.19;95.28
13767;BME280;47980;48.794;9.176;2023-01-31T07:14:33;99236.66;;;2.26;94.57
13767;BME280;47980;48.794;9.176;2023-01-31T07:17:05;99234.16;;;2.36;93.05
13767;BME280;47980;48.794;9.176;2023-01-31T07:19:36;99232.34;;;2.37;92.90
13767;BME280;47980;48.794;9.176;2023-01-31T07:22:08;99226.69;;;2.45;92.11
13767;BME280;47980;48.794;9.176;2023-01-31T07:24:39;99237.28;;;2.55;91.84
13767;BME280;47980;48.794;9.176;2023-01-31T07:27:12;99229.44;;;2.55;90.75
13767;BME280;47980;48.794;9.176;2023-01-31T07:29:45;99234.41;;;2.57;91.36
13767;BME280;47980;48.794;9.176;2023-01-31T07:32:16;99233.88;;;2.77;90.92
13767;BME280;47980;48.794;9.176;2023-01-31T07:34:48;99236.50;;;2.77;89.03
13767;BME280;47980;48.794;9.176;2023-01-31T07:37:19;99243.13;;;2.84;89.16
13767;BME280;47980;48.794;9.176;2023-01-31T07:39:51;99235.78;;;2.86;88.51
13767;BME280;47980;48.794;9.176;2023-01-31T07:42:22;99246.56;;;2.90;88.75
13767;BME280;47980;48.794;9.176;2023-01-31T07:44:55;99252.03;;;3.10;87.92
13767;BME280;47980;48.794;9.176;2023-01-31T07:47:26;99253.44;;;3.18;87.48
13767;BME280;47980;48.794;9.176;2023-01-31T07:49:58;99249.53;;;3.21;86.33
13767;BME280;47980;48.794;9.176;2023-01-31T07:52:30;99245.63;;;3.23;86.23
13767;BME280;47980;48.794;9.176;2023-01-31T07:55:01;99252.59;;;3.40;84.84
13767;BME280;47980;48.794;9.176;2023-01-31T07:57:33;99253.06;;;3.64;84.06
13767;BME280;47980;48.794;9.176;2023-01-31T08:00:07;99249.59;;;3.58;83.56
13767;BME280;47980;48.794;9.176;2023-01-31T08:02:59;99253.38;;;3.67;82.96
13767;BME280;47980;48.794;9.176;2023-01-31T08:05:48;99255.03;;;3.78;82.59
13767;BME280;47980;48.794;9.176;2023-01-31T08:08:20;99253.22;;;3.84;81.93
13767;BME280;47980;48.794;9.176;2023-01-31T08:10:51;99255.94;;;3.99;81.57
13767;BME280;47980;48.794;9.176;2023-01-31T08:13:23;99267.47;;;3.93;81.58
13767;BME280;47980;48.794;9.176;2023-01-31T08:15:57;99261.06;;;4.16;80.51
13767;BME280;47980;48.794;9.176;2023-01-31T08:18:29;99249.06;;;4.30;79.39
13767;BME280;47980;48.794;9.176;2023-01-31T08:21:00;99253.88;;;4.44;78.31
13767;BME280;47980;48.794;9.176;2023-01-31T08:23:32;99252.38;;;4.63;78.04
13767;BME280;47980;48.794;9.176;2023-01-31T08:26:05;99253.56;;;5.03;74.28
13767;BME280;47980;48.794;9.176;2023-01-31T08:28:39;99253.75;;;4.76;75.71
13767;BME280;47980;48.794;9.176;2023-01-31T08:31:14;99244.09;;;5.07;73.37
13767;BME280;47980;48.794;9.176;2023-01-31T08:33:46;99252.84;;;5.28;72.94
13767;BME280;47980;48.794;9.176;2023-01-31T08:36:21;99251.00;;;5.44;73.14
13767;BME280;47980;48.794;9.176;2023-01-31T08:38:54;99242.00;;;5.04;72.08
13767;BME280;47980;48.794;9.176;2023-01-31T08:41:28;99240.41;;;4.98;73.43
13767;BME280;47980;48.794;9.176;2023-01-31T08:44:00;99245.44;;;5.15;73.79
13767;BME280;47980;48.794;9.176;2023-01-31T08:46:35;99240.19;;;5.30;72.00
13767;BME280;47980;48.794;9.176;2023-01-31T08:49:07;99247.03;;;5.36;71.84
13767;BME280;47980;48.794;9.176;2023-01-31T08:51:40;99232.56;;;5.34;72.24
13767;BME280;47980;48.794;9.176;2023-01-31T08:54:12;99234.69;;;5.47;70.57
13767;BME280;47980;48.794;9.176;2023-01-31T08:56:44;99235.22;;;5.44;71.95
13767;BME280;47980;48.794;9.176;2023-01-31T08:59:16;99235.47;;;5.32;72.05
13767;BME280;47980;48.794;9.176;2023-01-31T09:01:48;99233.88;;;5.21;72.63
13767;BME280;47980;48.794;9.176;2023-01-31T09:04:20;99234.16;;;5.29;72.44
13767;BME280;47980;48.794;9.176;2023-01-31T09:06:51;99233.38;;;5.34;72.49
13767;BME280;47980;48.794;9.176;2023-01-31T09:09:23;99235.47;;;5.47;70.99
13767;BME280;47980;48.794;9.176;2023-01-31T09:11:55;99239.94;;;5.37;70.41
13767;BME280;47980;48.794;9.176;2023-01-31T09:14:27;99247.81;;;5.21;71.94
13767;BME280;47980;48.794;9.176;2023-01-31T09:17:01;99249.38;;;5.17;72.63
13767;BME280;47980;48.794;9.176;2023-01-31T09:19:32;99249.66;;;5.26;73.08
13767;BME280;47980;48.794;9.176;2023-01-31T09:22:04;99246.00;;;5.63;71.43
13767;BME280;47980;48.794;9.176;2023-01-31T09:24:35;99243.41;;;5.93;70.50
13767;BME280;47980;48.794;9.176;2023-01-31T09:27:07;99248.38;;;5.90;69.85
13767;BME280;47980;48.794;9.176;2023-01-31T09:29:38;99249.19;;;6.06;69.15
13767;BME280;47980;48.794;9.176;2023-01-31T09:32:11;99240.22;;;6.01;70.53
13767;BME280;47980;48.794;9.176;2023-01-31T09:34:43;99241.50;;;6.30;69.77
13767;BME280;47980;48.794;9.176;2023-01-31T09:37:16;99233.13;;;6.07;69.40
13767;BME280;47980;48.794;9.176;2023-01-31T09:39:47;99223.34;;;6.18;69.14
13767;BME280;47980;48.794;9.176;2023-01-31T09:42:22;99225.22;;;6.17;67.78
13767;BME280;47980;48.794;9.176;2023-01-31T09:44:58;99228.03;;;6.41;68.05
13767;BME280;47980;48.794;9.176;2023-01-31T09:47:36;99233.97;;;6.67;67.24
13767;BME280;47980;48.794;9.176;2023-01-31T09:50:17;99231.47;;;6.32;66.83
13767;BME280;47980;48.794;9.176;2023-01-31T09:52:50;99235.19;;;6.25;68.39
13767;BME280;47980;48.794;9.176;2023-01-31T09:55:25;99228.31;;;6.30;67.66
13767;BME280;47980;48.794;9.176;2023-01-31T09:58:05;99228.06;;;6.36;67.16
13767;BME280;47980;48.794;9.176;2023-01-31T10:00:45;99226.19;;;6.37;68.50
13767;BME280;47980;48.794;9.176;2023-01-31T10:03:42;99232.75;;;6.44;66.77
13767;BME280;47980;48.794;9.176;2023-01-31T10:06:19;99244.66;;;6.37;67.21
13767;BME280;47980;48.794;9.176;2023-01-31T10:08:58;99248.66;;;6.14;69.49
13767;BME280;47980;48.794;9.176;2023-01-31T10:11:35;99245.72;;;6.20;69.82
13767;BME280;47980;48.794;9.176;2023-01-31T10:14:19;99249.38;;;6.35;68.01
13767;BME280;47980;48.794;9.176;2023-01-31T10:17:02;99252.53;;;6.42;67.48
13767;BME280;47980;48.794;9.176;2023-01-31T10:19:42;99255.03;;;6.78;66.75
13767;BME280;47980;48.794;9.176;2023-01-31T10:22:19;99253.44;;;6.82;66.37
13767;BME280;47980;48.794;9.176;2023-01-31T10:24:54;99243.34;;;6.39;68.12
13767;BME280;47980;48.794;9.176;2023-01-31T10:27:37;99225.34;;;6.51;66.76
13767;BME280;47980;48.794;9.176;2023-01-31T10:30:15;99241.75;;;6.28;68.32
13767;BME280;47980;48.794;9.176;2023-01-31T10:32:50;99231.69;;;6.50;66.68
13767;BME280;47980;48.794;9.176;2023-01-31T10:35:28;99228.72;;;6.67;67.32
13767;BME280;47980;48.794;9.176;2023-01-31T10:38:05;99224.03;;;7.04;65.95
13767;BME280;47980;48.794;9.176;2023-01-31T10:40:44;99215.34;;;7.03;63.32
13767;BME280;47980;48.794;9.176;2023-01-31T10:43:24;99228.34;;;6.94;65.53
13767;BME280;47980;48.794;9.176;2023-01-31T10:45:59;99235.00;;;6.77;64.84
13767;BME280;47980;48.794;9.176;2023-01-31T10:48:32;99234.06;;;7.07;64.80
13767;BME280;47980;48.794;9.176;2023-01-31T10:51:09;99226.16;;;7.07;64.98
13767;BME280;47980;48.794;9.176;2023-01-31T10:56:43;99229.47;;;7.22;63.72
13767;BME280;47980;48.794;9.176;2023-01-31T10:59:22;99230.06;;;7.14;63.68
13767;BME280;47980;48.794;9.176;2023-01-31T11:01:55;99234.91;;;6.97;63.75
13767;BME280;47980;48.794;9.176;2023-01-31T11:04:29;99223.16;;;7.23;64.65
13767;BME280;47980;48.794;9.176;2023-01-31T11:07:03;99218.56;;;6.95;63.80
13767;BME280;47980;48.794;9.176;2023-01-31T11:09:37;99223.81;;;7.39;63.12
13767;BME280;47980;48.794;9.176;2023-01-31T11:12:09;99222.25;;;7.38;63.28
13767;BME280;47980;48.794;9.176;2023-01-31T11:14:40;99209.34;;;7.32;63.58
13767;BME280;47980;48.794;9.176;2023-01-31T11:17:15;99213.25;;;7.39;64.09
13767;BME280;47980;48.794;9.176;2023-01-31T11:19:49;99203.13;;;7.17;62.81
13767;BME280;47980;48.794;9.176;2023-01-31T11:22:25;99193.50;;;6.92;64.24
13767;BME280;47980;48.794;9.176;2023-01-31T11:24:58;99199.03;;;7.01;63.74
13767;BME280;47980;48.794;9.176;2023-01-31T11:27:37;99198.44;;;7.04;64.75
13767;BME280;47980;48.794;9.176;2023-01-31T11:30:20;99191.25;;;7.15;64.05
13767;BME280;47980;48.794;9.176;2023-01-31T11:32:53;99180.50;;;6.57;65.41
13767;BME280;47980;48.794;9.176;2023-01-31T11:35:26;99174.31;;;6.82;63.96
13767;BME280;47980;48.794;9.176;2023-01-31T11:38:02;99161.59;;;6.94;65.98
13767;BME280;47980;48.794;9.176;2023-01-31T11:40:36;99140.28;;;7.54;62.54
13767;BME280;47980;48.794;9.176;2023-01-31T11:43:23;99150.00;;;7.58;64.06
13767;BME280;47980;48.794;9.176;2023-01-31T11:45:57;99155.88;;;7.79;61.93
13767;BME280;47980;48.794;9.176;2023-01-31T11:48:31;99148.72;;;7.56;61.72
13767;BME280;47980;48.794;9.176;2023-01-31T11:51:11;99138.41;;;7.83;61.55
13767;BME280;47980;48.794;9.176;2023-01-31T11:53:57;99139.59;;;7.72;62.91
13767;BME280;47980;48.794;9.176;2023-01-31T11:56:33;99151.16;;;7.47;62.50
13767;BME280;47980;48.794;9.176;2023-01-31T11:59:09;99155.28;;;7.58;62.55
13767;BME280;47980;48.794;9.176;2023-01-31T12:01:45;99152.88;;;7.33;60.70
13767;BME280;47980;48.794;9.176;2023-01-31T12:04:21;99149.44;;;7.90;59.27
13767;BME280;47980;48.794;9.176;2023-01-31T12:06:57;99151.22;;;7.42;60.03
13767;BME280;47980;48.794;9.176;2023-01-31T12:09:41;99144.00;;;7.53;59.42
13767;BME280;47980;48.794;9.176;2023-01-31T12:12:27;99131.00;;;7.85;58.95
13767;BME280;47980;48.794;9.176;2023-01-31T12:15:02;99127.63;;;7.80;58.61
13767;BME280;47980;48.794;9.176;2023-01-31T12:17:42;99116.94;;;7.66;60.16
13767;BME280;47980;48.794;9.176;2023-01-31T12:20:25;99129.22;;;7.81;59.38
13767;BME280;47980;48.794;9.176;2023-01-31T12:23:09;99132.19;;;7.74;58.61
13767;BME280;47980;48.794;9.176;2023-01-31T12:25:54;99123.81;;;7.91;57.84
13767;BME280;47980;48.794;9.176;2023-01-31T12:28:38;99109.81;;;7.90;57.50
13767;BME280;47980;48.794;9.176;2023-01-31T12:31:22;99090.94;;;7.78;58.13
13767;BME280;47980;48.794;9.176;2023-01-31T12:34:12;99091.06;;;7.92;59.10
13767;BME280;47980;48.794;9.176;2023-01-31T12:37:10;99092.66;;;8.12;57.67
13767;BME280;47980;48.794;9.176;2023-01-31T12:40:02;99068.09;;;8.30;56.61
13767;BME280;47980;48.794;9.176;2023-01-31T12:42:50;99069.06;;;7.96;58.33
13767;BME280;47980;48.794;9.176;2023-01-31T12:45:33;99060.03;;;7.79;57.93
13767;BME280;47980;48.794;9.176;2023-01-31T12:48:16;99054.47;;;7.56;58.44
13767;BME280;47980;48.794;9.176;2023-01-31T12:50:59;99063.47;;;7.26;58.91
13767;BME280;47980;48.794;9.176;2023-01-31T12:53:54;99067.94;;;7.26;60.08
13767;BME280;47980;48.794;9.176;2023-01-31T12:56:46;99067.13;;;7.01;61.21
13767;BME280;47980;48.794;9.176;2023-01-31T12:59:33;99079.91;;;7.18;59.88
13767;BME280;47980;48.794;9.176;2023-01-31T13:02:19;99066.78;;;7.37;59.66
13767;BME280;47980;48.794;9.176;2023-01-31T13:04:58;99076.63;;;6.97;60.88
13767;BME280;47980;48.794;9.176;2023-01-31T13:07:36;99067.84;;;7.12;61.65
13767;BME280;47980;48.794;9.176;2023-01-31T13:10:29;99048.16;;;7.28;60.94
13767;BME280;47980;48.794;9.176;2023-01-31T13:13:05;99046.38;;;7.18;60.55
13767;BME280;47980;48.794;9.176;2023-01-31T13:15:46;99049.91;;;6.80;61.07
13767;BME280;47980;48.794;9.176;2023-01-31T13:18:20;99054.34;;;6.84;61.03
13767;BME280;47980;48.794;9.176;2023-01-31T13:20:55;99047.75;;;6.82;61.77
13767;BME280;47980;48.794;9.176;2023-01-31T13:23:30;99056.00;;;7.04;61.35
13767;BME280;47980;48.794;9.176;2023-01-31T13:26:08;99055.03;;;6.95;60.73
13767;BME280;47980;48.794;9.176;2023-01-31T13:28:43;99044.09;;;6.78;62.34
13767;BME280;47980;48.794;9.176;2023-01-31T13:31:21;99042.53;;;6.77;62.82
13767;BME280;47980;48.794;9.176;2023-01-31T13:33:59;99041.47;;;6.78;62.43
13767;BME280;47980;48.794;9.176;2023-01-31T13:36:37;99026.13;;;6.50;63.81
13767;BME280;47980;48.794;9.176;2023-01-31T13:39:15;99035.34;;;6.48;63.79
13767;BME280;47980;48.794;9.176;2023-01-31T13:41:49;99034.88;;;6.75;62.85
13767;BME280;47980;48.794;9.176;2023-01-31T13:44:20;99038.81;;;6.78;62.78
13767;BME280;47980;48.794;9.176;2023-01-31T13:46:56;99038.16;;;6.96;62.50
13767;BME280;47980;48.794;9.176;2023-01-31T13:49:32;99051.28;;;6.72;62.70
13767;BME280;47980;48.794;9.176;2023-01-31T13:52:11;99043.22;;;6.53;63.04
13767;BME280;47980;48.794;9.176;2023-01-31T13:54:48;99024.94;;;6.67;64.20
13767;BME280;47980;48.794;9.176;2023-01-31T13:57:23;99027.56;;;6.67;62.78
13767;BME280;47980;48.794;9.176;2023-01-31T14:00:02;99038.81;;;6.78;62.34
13767;BME280;47980;48.794;9.176;2023-01-31T14:02:35;99043.84;;;6.79;62.75